Glen Cove, Washington
Current Conditions -  °F | °C
As of 8:56 AM on Friday 28 Nov 2014 (Local Time) from KNUW Reporting Station
Light Rain Light Rain  
Wind Chill: 38°   Ceiling: 3500
Heat Index: 45°   Visibility: 7mi
Dew Point: 39°   Wind: 15mph
Humidity: 80%   Direction: 330°NNW
Pressure: 29.55"   Gusts: NA
Location:  48.026°N, 122.859°W
Report Text: KNUW 281656Z 33013KT 7SM -RA FEW012 SCT023 OVC035 07/04 A2955 RMK AO2 SLP010 P0007 T00720039 $
Loading
Personal Weather Stations






























Interactive Weather Map New forecast layout! Learn more

10-Day Weather Forecast

Advertisements
Track Severe Weather on mobile